sensor_id;sensor_type;location;lat;lon;timestamp;temperature;humidity
70079;DHT22;57451;52.496;13.456;2023-04-16T00:00:30;11.10;78.60
70079;DHT22;57451;52.496;13.456;2023-04-16T00:02:59;11.10;78.70
70079;DHT22;57451;52.496;13.456;2023-04-16T00:05:26;11.10;78.40
70079;DHT22;57451;52.496;13.456;2023-04-16T00:07:53;11.10;78.40
70079;DHT22;57451;52.496;13.456;2023-04-16T00:10:21;11.10;78.70
70079;DHT22;57451;52.496;13.456;2023-04-16T00:12:48;11.10;78.40
70079;DHT22;57451;52.496;13.456;2023-04-16T00:15:15;11.10;78.50
70079;DHT22;57451;52.496;13.456;2023-04-16T00:17:42;11.10;78.80
70079;DHT22;57451;52.496;13.456;2023-04-16T00:20:11;11.10;78.40
70079;DHT22;57451;52.496;13.456;2023-04-16T00:22:38;11.10;78.60
70079;DHT22;57451;52.496;13.456;2023-04-16T00:25:06;11.10;78.50
70079;DHT22;57451;52.496;13.456;2023-04-16T00:27:33;11.00;78.70
70079;DHT22;57451;52.496;13.456;2023-04-16T00:30:01;11.00;78.80
70079;DHT22;57451;52.496;13.456;2023-04-16T00:32:29;11.00;78.60
70079;DHT22;57451;52.496;13.456;2023-04-16T00:34:56;11.10;78.60
70079;DHT22;57451;52.496;13.456;2023-04-16T00:37:25;11.00;78.60
70079;DHT22;57451;52.496;13.456;2023-04-16T00:39:52;11.10;78.40
70079;DHT22;57451;52.496;13.456;2023-04-16T00:42:19;11.10;78.60
70079;DHT22;57451;52.496;13.456;2023-04-16T00:44:46;11.00;78.60
70079;DHT22;57451;52.496;13.456;2023-04-16T00:47:14;11.10;78.60
70079;DHT22;57451;52.496;13.456;2023-04-16T00:49:41;11.10;78.50
70079;DHT22;57451;52.496;13.456;2023-04-16T00:52:10;11.10;78.30
70079;DHT22;57451;52.496;13.456;2023-04-16T00:54:39;11.10;78.30
70079;DHT22;57451;52.496;13.456;2023-04-16T00:57:06;11.10;78.30
70079;DHT22;57451;52.496;13.456;2023-04-16T00:59:34;11.10;78.60
70079;DHT22;57451;52.496;13.456;2023-04-16T01:02:01;11.10;78.80
70079;DHT22;57451;52.496;13.456;2023-04-16T01:04:29;11.00;78.90
70079;DHT22;57451;52.496;13.456;2023-04-16T01:06:57;11.00;78.90
70079;DHT22;57451;52.496;13.456;2023-04-16T01:09:24;11.00;78.90
70079;DHT22;57451;52.496;13.456;2023-04-16T01:11:52;11.00;78.70
70079;DHT22;57451;52.496;13.456;2023-04-16T01:14:20;11.00;78.70
70079;DHT22;57451;52.496;13.456;2023-04-16T01:16:47;11.00;78.70
70079;DHT22;57451;52.496;13.456;2023-04-16T01:19:14;11.00;78.60
70079;DHT22;57451;52.496;13.456;2023-04-16T01:21:43;11.10;78.60
70079;DHT22;57451;52.496;13.456;2023-04-16T01:24:10;11.10;78.30
70079;DHT22;57451;52.496;13.456;2023-04-16T01:26:38;11.10;78.40
70079;DHT22;57451;52.496;13.456;2023-04-16T01:29:06;11.10;78.50
70079;DHT22;57451;52.496;13.456;2023-04-16T01:31:33;11.10;78.60
70079;DHT22;57451;52.496;13.456;2023-04-16T01:34:09;11.10;78.40
70079;DHT22;57451;52.496;13.456;2023-04-16T01:36:36;11.10;78.60
70079;DHT22;57451;52.496;13.456;2023-04-16T01:39:05;11.10;78.60
70079;DHT22;57451;52.496;13.456;2023-04-16T01:41:32;11.00;78.60
70079;DHT22;57451;52.496;13.456;2023-04-16T01:43:59;11.00;78.90
70079;DHT22;57451;52.496;13.456;2023-04-16T01:46:28;11.00;78.80
70079;DHT22;57451;52.496;13.456;2023-04-16T01:48:57;11.10;78.70
70079;DHT22;57451;52.496;13.456;2023-04-16T01:51:24;11.10;78.50
70079;DHT22;57451;52.496;13.456;2023-04-16T01:53:53;11.10;78.40
70079;DHT22;57451;52.496;13.456;2023-04-16T01:56:22;11.10;78.60
70079;DHT22;57451;52.496;13.456;2023-04-16T01:58:50;11.10;78.40
70079;DHT22;57451;52.496;13.456;2023-04-16T02:01:18;11.10;78.10
70079;DHT22;57451;52.496;13.456;2023-04-16T02:03:46;11.10;78.30
70079;DHT22;57451;52.496;13.456;2023-04-16T02:06:14;11.10;78.40
70079;DHT22;57451;52.496;13.456;2023-04-16T02:08:41;11.00;78.60
70079;DHT22;57451;52.496;13.456;2023-04-16T02:11:09;11.00;78.40
70079;DHT22;57451;52.496;13.456;2023-04-16T02:13:38;11.10;78.60
70079;DHT22;57451;52.496;13.456;2023-04-16T02:16:06;11.10;78.50
70079;DHT22;57451;52.496;13.456;2023-04-16T02:18:42;11.10;78.40
70079;DHT22;57451;52.496;13.456;2023-04-16T02:21:12;11.10;78.30
70079;DHT22;57451;52.496;13.456;2023-04-16T02:23:40;11.10;78.30
70079;DHT22;57451;52.496;13.456;2023-04-16T02:26:07;11.10;78.30
70079;DHT22;57451;52.496;13.456;2023-04-16T02:28:35;11.10;78.50
70079;DHT22;57451;52.496;13.456;2023-04-16T02:31:05;11.10;78.40
70079;DHT22;57451;52.496;13.456;2023-04-16T02:33:39;11.10;78.60
70079;DHT22;57451;52.496;13.456;2023-04-16T02:36:07;11.00;78.50
70079;DHT22;57451;52.496;13.456;2023-04-16T02:38:36;11.10;78.30
70079;DHT22;57451;52.496;13.456;2023-04-16T02:41:04;11.10;78.40
70079;DHT22;57451;52.496;13.456;2023-04-16T02:43:33;11.00;78.40
70079;DHT22;57451;52.496;13.456;2023-04-16T02:46:01;11.00;78.70
70079;DHT22;57451;52.496;13.456;2023-04-16T02:48:29;11.00;78.70
70079;DHT22;57451;52.496;13.456;2023-04-16T02:50:57;11.00;78.70
70079;DHT22;57451;52.496;13.456;2023-04-16T02:53:24;11.00;78.70
70079;DHT22;57451;52.496;13.456;2023-04-16T02:55:53;11.00;78.80
70079;DHT22;57451;52.496;13.456;2023-04-16T02:58:21;10.90;78.90
70079;DHT22;57451;52.496;13.456;2023-04-16T03:00:50;10.90;79.00
70079;DHT22;57451;52.496;13.456;2023-04-16T03:03:17;11.00;78.90
70079;DHT22;57451;52.496;13.456;2023-04-16T03:05:46;11.00;78.80
70079;DHT22;57451;52.496;13.456;2023-04-16T03:08:14;10.90;78.90
70079;DHT22;57451;52.496;13.456;2023-04-16T03:10:41;10.90;78.90
70079;DHT22;57451;52.496;13.456;2023-04-16T03:13:08;10.90;78.90
70079;DHT22;57451;52.496;13.456;2023-04-16T03:15:35;10.90;79.10
70079;DHT22;57451;52.496;13.456;2023-04-16T03:18:03;10.90;78.90
70079;DHT22;57451;52.496;13.456;2023-04-16T03:20:30;10.90;79.10
70079;DHT22;57451;52.496;13.456;2023-04-16T03:22:59;10.90;79.10
70079;DHT22;57451;52.496;13.456;2023-04-16T03:25:27;10.90;79.20
70079;DHT22;57451;52.496;13.456;2023-04-16T03:27:55;10.80;79.20
70079;DHT22;57451;52.496;13.456;2023-04-16T03:30:23;10.70;79.50
70079;DHT22;57451;52.496;13.456;2023-04-16T03:32:50;10.80;79.40
70079;DHT22;57451;52.496;13.456;2023-04-16T03:35:18;10.80;79.40
70079;DHT22;57451;52.496;13.456;2023-04-16T03:37:45;10.80;79.20
70079;DHT22;57451;52.496;13.456;2023-04-16T03:40:14;10.80;79.20
70079;DHT22;57451;52.496;13.456;2023-04-16T03:42:42;10.80;79.30
70079;DHT22;57451;52.496;13.456;2023-04-16T03:45:10;10.80;78.90
70079;DHT22;57451;52.496;13.456;2023-04-16T03:47:39;10.80;79.10
70079;DHT22;57451;52.496;13.456;2023-04-16T03:50:08;10.80;79.00
70079;DHT22;57451;52.496;13.456;2023-04-16T03:52:36;10.70;79.20
70079;DHT22;57451;52.496;13.456;2023-04-16T03:55:03;10.70;79.10
70079;DHT22;57451;52.496;13.456;2023-04-16T03:57:32;10.70;79.10
70079;DHT22;57451;52.496;13.456;2023-04-16T04:00:06;10.70;79.10
70079;DHT22;57451;52.496;13.456;2023-04-16T04:02:40;10.60;79.50
70079;DHT22;57451;52.496;13.456;2023-04-16T04:05:15;10.60;79.60
70079;DHT22;57451;52.496;13.456;2023-04-16T04:07:43;10.60;79.30
70079;DHT22;57451;52.496;13.456;2023-04-16T04:10:12;10.70;79.10
70079;DHT22;57451;52.496;13.456;2023-04-16T04:12:42;10.70;79.10
70079;DHT22;57451;52.496;13.456;2023-04-16T04:15:10;10.70;78.90
70079;DHT22;57451;52.496;13.456;2023-04-16T04:17:37;10.70;78.60
70079;DHT22;57451;52.496;13.456;2023-04-16T04:20:06;10.70;78.80
70079;DHT22;57451;52.496;13.456;2023-04-16T04:22:33;10.70;78.50
70079;DHT22;57451;52.496;13.456;2023-04-16T04:25:00;10.70;78.80
70079;DHT22;57451;52.496;13.456;2023-04-16T04:27:31;10.70;78.70
70079;DHT22;57451;52.496;13.456;2023-04-16T04:29:59;10.70;78.40
70079;DHT22;57451;52.496;13.456;2023-04-16T04:32:27;10.70;78.10
70079;DHT22;57451;52.496;13.456;2023-04-16T04:34:54;10.70;78.30
70079;DHT22;57451;52.496;13.456;2023-04-16T04:37:21;10.70;78.40
70079;DHT22;57451;52.496;13.456;2023-04-16T04:39:49;10.70;78.30
70079;DHT22;57451;52.496;13.456;2023-04-16T04:42:17;10.70;78.30
70079;DHT22;57451;52.496;13.456;2023-04-16T04:44:45;10.70;78.20
70079;DHT22;57451;52.496;13.456;2023-04-16T04:47:14;10.70;78.40
70079;DHT22;57451;52.496;13.456;2023-04-16T04:49:41;10.70;78.50
70079;DHT22;57451;52.496;13.456;2023-04-16T04:52:08;10.70;78.50
70079;DHT22;57451;52.496;13.456;2023-04-16T04:54:35;10.60;78.60
70079;DHT22;57451;52.496;13.456;2023-04-16T04:57:04;10.70;78.60
70079;DHT22;57451;52.496;13.456;2023-04-16T04:59:31;10.70;78.50
70079;DHT22;57451;52.496;13.456;2023-04-16T05:01:59;10.60;78.30
70079;DHT22;57451;52.496;13.456;2023-04-16T05:04:27;10.60;78.30
70079;DHT22;57451;52.496;13.456;2023-04-16T05:06:54;10.60;78.30
70079;DHT22;57451;52.496;13.456;2023-04-16T05:09:22;10.60;78.80
70079;DHT22;57451;52.496;13.456;2023-04-16T05:11:49;10.60;78.80
70079;DHT22;57451;52.496;13.456;2023-04-16T05:14:16;10.60;78.60
70079;DHT22;57451;52.496;13.456;2023-04-16T05:16:43;10.60;78.80
70079;DHT22;57451;52.496;13.456;2023-04-16T05:19:10;10.50;78.90
70079;DHT22;57451;52.496;13.456;2023-04-16T05:21:39;10.40;79.20
70079;DHT22;57451;52.496;13.456;2023-04-16T05:24:07;10.50;79.00
70079;DHT22;57451;52.496;13.456;2023-04-16T05:26:34;10.50;79.00
70079;DHT22;57451;52.496;13.456;2023-04-16T05:29:01;10.50;79.00
70079;DHT22;57451;52.496;13.456;2023-04-16T05:31:28;10.50;78.70
70079;DHT22;57451;52.496;13.456;2023-04-16T05:33:56;10.50;78.90
70079;DHT22;57451;52.496;13.456;2023-04-16T05:36:23;10.50;78.80
70079;DHT22;57451;52.496;13.456;2023-04-16T05:38:51;10.50;78.70
70079;DHT22;57451;52.496;13.456;2023-04-16T05:41:19;10.60;78.70
70079;DHT22;57451;52.496;13.456;2023-04-16T05:43:46;10.50;78.70
70079;DHT22;57451;52.496;13.456;2023-04-16T05:46:13;10.60;78.70
70079;DHT22;57451;52.496;13.456;2023-04-16T05:48:40;10.50;78.60
70079;DHT22;57451;52.496;13.456;2023-04-16T05:51:08;10.50;79.00
70079;DHT22;57451;52.496;13.456;2023-04-16T05:53:35;10.50;78.80
70079;DHT22;57451;52.496;13.456;2023-04-16T05:56:04;10.50;78.90
70079;DHT22;57451;52.496;13.456;2023-04-16T05:58:31;10.50;78.80
70079;DHT22;57451;52.496;13.456;2023-04-16T06:00:58;10.50;78.80
70079;DHT22;57451;52.496;13.456;2023-04-16T06:03:27;10.60;78.80
70079;DHT22;57451;52.496;13.456;2023-04-16T06:05:54;10.50;78.80
70079;DHT22;57451;52.496;13.456;2023-04-16T06:08:22;10.60;78.80
70079;DHT22;57451;52.496;13.456;2023-04-16T06:10:49;10.50;78.70
70079;DHT22;57451;52.496;13.456;2023-04-16T06:13:18;10.50;78.70
70079;DHT22;57451;52.496;13.456;2023-04-16T06:15:45;10.50;78.80
70079;DHT22;57451;52.496;13.456;2023-04-16T06:18:13;10.60;78.60
70079;DHT22;57451;52.496;13.456;2023-04-16T06:20:40;10.60;78.70
70079;DHT22;57451;52.496;13.456;2023-04-16T06:23:07;10.60;78.80
70079;DHT22;57451;52.496;13.456;2023-04-16T06:25:34;10.60;78.50
70079;DHT22;57451;52.496;13.456;2023-04-16T06:28:02;10.60;78.60
70079;DHT22;57451;52.496;13.456;2023-04-16T06:30:30;10.60;78.70
70079;DHT22;57451;52.496;13.456;2023-04-16T06:32:58;10.60;78.60
70079;DHT22;57451;52.496;13.456;2023-04-16T06:35:25;10.60;78.90
70079;DHT22;57451;52.496;13.456;2023-04-16T06:37:52;10.60;79.00
70079;DHT22;57451;52.496;13.456;2023-04-16T06:40:19;10.60;78.70
70079;DHT22;57451;52.496;13.456;2023-04-16T06:42:47;10.60;78.80
70079;DHT22;57451;52.496;13.456;2023-04-16T06:45:14;10.70;78.60
70079;DHT22;57451;52.496;13.456;2023-04-16T06:47:43;10.70;78.60
70079;DHT22;57451;52.496;13.456;2023-04-16T06:50:10;10.70;78.70
70079;DHT22;57451;52.496;13.456;2023-04-16T06:52:37;10.70;78.70
70079;DHT22;57451;52.496;13.456;2023-04-16T06:55:05;10.70;78.70
70079;DHT22;57451;52.496;13.456;2023-04-16T06:57:35;10.70;78.60
70079;DHT22;57451;52.496;13.456;2023-04-16T07:00:04;10.70;78.90
70079;DHT22;57451;52.496;13.456;2023-04-16T07:02:32;10.70;78.70
70079;DHT22;57451;52.496;13.456;2023-04-16T07:05:01;10.70;78.90
70079;DHT22;57451;52.496;13.456;2023-04-16T07:07:28;10.70;78.70
70079;DHT22;57451;52.496;13.456;2023-04-16T07:09:55;10.80;78.60
70079;DHT22;57451;52.496;13.456;2023-04-16T07:12:22;10.70;78.60
70079;DHT22;57451;52.496;13.456;2023-04-16T07:14:50;10.70;79.30
70079;DHT22;57451;52.496;13.456;2023-04-16T07:17:17;10.70;79.90
70079;DHT22;57451;52.496;13.456;2023-04-16T07:19:45;10.70;79.80
70079;DHT22;57451;52.496;13.456;2023-04-16T07:22:13;10.70;79.30
70079;DHT22;57451;52.496;13.456;2023-04-16T07:24:40;10.80;79.10
70079;DHT22;57451;52.496;13.456;2023-04-16T07:27:08;10.80;79.00
70079;DHT22;57451;52.496;13.456;2023-04-16T07:29:35;10.80;79.10
70079;DHT22;57451;52.496;13.456;2023-04-16T07:32:02;10.80;79.00
70079;DHT22;57451;52.496;13.456;2023-04-16T07:34:30;10.80;78.70
70079;DHT22;57451;52.496;13.456;2023-04-16T07:36:57;10.80;79.00
70079;DHT22;57451;52.496;13.456;2023-04-16T07:39:25;10.80;79.00
70079;DHT22;57451;52.496;13.456;2023-04-16T07:41:53;10.80;78.70
70079;DHT22;57451;52.496;13.456;2023-04-16T07:44:20;10.80;78.70
70079;DHT22;57451;52.496;13.456;2023-04-16T07:46:48;10.90;78.50
70079;DHT22;57451;52.496;13.456;2023-04-16T07:49:15;10.80;78.60
70079;DHT22;57451;52.496;13.456;2023-04-16T07:51:42;10.90;78.50
70079;DHT22;57451;52.496;13.456;2023-04-16T07:54:10;10.90;78.50
70079;DHT22;57451;52.496;13.456;2023-04-16T07:56:39;10.90;78.30
70079;DHT22;57451;52.496;13.456;2023-04-16T07:59:06;10.80;78.40
70079;DHT22;57451;52.496;13.456;2023-04-16T08:01:49;10.90;78.40
70079;DHT22;57451;52.496;13.456;2023-04-16T08:04:16;10.90;78.40
70079;DHT22;57451;52.496;13.456;2023-04-16T08:06:49;10.90;78.30
70079;DHT22;57451;52.496;13.456;2023-04-16T08:09:18;10.90;78.20
70079;DHT22;57451;52.496;13.456;2023-04-16T08:11:46;10.90;78.40
70079;DHT22;57451;52.496;13.456;2023-04-16T08:14:15;10.90;78.10
70079;DHT22;57451;52.496;13.456;2023-04-16T08:16:43;10.90;78.10
70079;DHT22;57451;52.496;13.456;2023-04-16T08:19:10;10.90;78.20
70079;DHT22;57451;52.496;13.456;2023-04-16T08:21:38;10.90;78.00
70079;DHT22;57451;52.496;13.456;2023-04-16T08:24:05;10.90;78.20
70079;DHT22;57451;52.496;13.456;2023-04-16T08:26:33;10.90;78.30
70079;DHT22;57451;52.496;13.456;2023-04-16T08:29:01;10.90;78.30
70079;DHT22;57451;52.496;13.456;2023-04-16T08:31:29;10.90;78.20
70079;DHT22;57451;52.496;13.456;2023-04-16T08:33:56;10.90;78.50
70079;DHT22;57451;52.496;13.456;2023-04-16T08:36:23;10.90;78.30
70079;DHT22;57451;52.496;13.456;2023-04-16T08:38:51;11.00;78.00
70079;DHT22;57451;52.496;13.456;2023-04-16T08:41:20;11.00;78.00
70079;DHT22;57451;52.496;13.456;2023-04-16T08:43:49;11.00;78.00
70079;DHT22;57451;52.496;13.456;2023-04-16T08:46:22;11.00;78.00
70079;DHT22;57451;52.496;13.456;2023-04-16T08:48:53;10.90;78.20
70079;DHT22;57451;52.496;13.456;2023-04-16T08:51:22;10.90;78.40
70079;DHT22;57451;52.496;13.456;2023-04-16T08:53:52;10.90;78.50
70079;DHT22;57451;52.496;13.456;2023-04-16T08:56:21;10.90;78.50
70079;DHT22;57451;52.496;13.456;2023-04-16T08:58:50;11.00;78.40
70079;DHT22;57451;52.496;13.456;2023-04-16T09:01:19;11.00;78.20
70079;DHT22;57451;52.496;13.456;2023-04-16T09:03:47;11.00;78.20
70079;DHT22;57451;52.496;13.456;2023-04-16T09:06:15;11.00;78.00
70079;DHT22;57451;52.496;13.456;2023-04-16T09:08:43;11.10;77.90
70079;DHT22;57451;52.496;13.456;2023-04-16T09:11:12;11.10;77.70
70079;DHT22;57451;52.496;13.456;2023-04-16T09:13:40;11.10;77.80
70079;DHT22;57451;52.496;13.456;2023-04-16T09:16:07;11.00;77.70
70079;DHT22;57451;52.496;13.456;2023-04-16T09:18:37;11.00;77.90
70079;DHT22;57451;52.496;13.456;2023-04-16T09:21:04;11.00;77.50
70079;DHT22;57451;52.496;13.456;2023-04-16T09:23:34;11.10;77.50
70079;DHT22;57451;52.496;13.456;2023-04-16T09:26:03;11.00;78.20
70079;DHT22;57451;52.496;13.456;2023-04-16T09:28:38;11.10;78.20
70079;DHT22;57451;52.496;13.456;2023-04-16T09:31:09;11.10;78.20
70079;DHT22;57451;52.496;13.456;2023-04-16T09:33:38;11.10;78.50
70079;DHT22;57451;52.496;13.456;2023-04-16T09:36:06;11.20;78.20
70079;DHT22;57451;52.496;13.456;2023-04-16T09:38:47;11.20;78.20
70079;DHT22;57451;52.496;13.456;2023-04-16T09:41:14;11.20;78.10
70079;DHT22;57451;52.496;13.456;2023-04-16T09:44:03;11.30;78.30
70079;DHT22;57451;52.496;13.456;2023-04-16T09:46:40;11.30;78.00
70079;DHT22;57451;52.496;13.456;2023-04-16T09:49:12;11.30;77.80
70079;DHT22;57451;52.496;13.456;2023-04-16T09:51:40;11.30;77.80
70079;DHT22;57451;52.496;13.456;2023-04-16T09:54:08;11.30;77.80
70079;DHT22;57451;52.496;13.456;2023-04-16T09:56:39;11.40;77.70
70079;DHT22;57451;52.496;13.456;2023-04-16T09:59:08;11.40;77.50
70079;DHT22;57451;52.496;13.456;2023-04-16T10:01:35;11.40;77.50
70079;DHT22;57451;52.496;13.456;2023-04-16T10:04:05;11.40;77.20
70079;DHT22;57451;52.496;13.456;2023-04-16T10:06:34;11.40;77.00
70079;DHT22;57451;52.496;13.456;2023-04-16T10:09:06;11.50;76.80
70079;DHT22;57451;52.496;13.456;2023-04-16T10:11:34;11.50;76.80
70079;DHT22;57451;52.496;13.456;2023-04-16T10:14:01;11.50;76.90
70079;DHT22;57451;52.496;13.456;2023-04-16T10:16:29;11.50;76.80
70079;DHT22;57451;52.496;13.456;2023-04-16T10:18:57;11.60;76.80
70079;DHT22;57451;52.496;13.456;2023-04-16T10:21:25;11.60;76.60
70079;DHT22;57451;52.496;13.456;2023-04-16T10:24:01;11.50;76.60
70079;DHT22;57451;52.496;13.456;2023-04-16T10:26:29;11.50;76.70
70079;DHT22;57451;52.496;13.456;2023-04-16T10:28:57;11.50;76.70
70079;DHT22;57451;52.496;13.456;2023-04-16T10:31:25;11.50;77.00
70079;DHT22;57451;52.496;13.456;2023-04-16T10:33:53;11.50;77.00
70079;DHT22;57451;52.496;13.456;2023-04-16T10:36:23;11.50;76.90
70079;DHT22;57451;52.496;13.456;2023-04-16T10:38:51;11.60;76.60
70079;DHT22;57451;52.496;13.456;2023-04-16T10:41:20;11.60;76.70
70079;DHT22;57451;52.496;13.456;2023-04-16T10:43:49;11.60;76.60
70079;DHT22;57451;52.496;13.456;2023-04-16T10:46:17;11.70;76.60
70079;DHT22;57451;52.496;13.456;2023-04-16T10:48:45;11.60;76.80
70079;DHT22;57451;52.496;13.456;2023-04-16T10:51:24;11.60;76.90
70079;DHT22;57451;52.496;13.456;2023-04-16T10:53:56;11.60;77.10
70079;DHT22;57451;52.496;13.456;2023-04-16T10:56:25;11.60;77.20
70079;DHT22;57451;52.496;13.456;2023-04-16T10:58:54;11.60;76.90
70079;DHT22;57451;52.496;13.456;2023-04-16T11:01:29;11.70;76.80
70079;DHT22;57451;52.496;13.456;2023-04-16T11:03:58;11.70;76.50
70079;DHT22;57451;52.496;13.456;2023-04-16T11:06:27;11.80;76.40
70079;DHT22;57451;52.496;13.456;2023-04-16T11:08:55;11.80;76.30
70079;DHT22;57451;52.496;13.456;2023-04-16T11:11:24;11.90;76.00
70079;DHT22;57451;52.496;13.456;2023-04-16T11:13:54;11.90;75.90
70079;DHT22;57451;52.496;13.456;2023-04-16T11:16:23;11.80;75.80
70079;DHT22;57451;52.496;13.456;2023-04-16T11:18:51;11.90;75.90
70079;DHT22;57451;52.496;13.456;2023-04-16T11:21:21;11.90;75.70
70079;DHT22;57451;52.496;13.456;2023-04-16T11:23:51;12.00;75.60
70079;DHT22;57451;52.496;13.456;2023-04-16T11:26:25;12.00;75.60
70079;DHT22;57451;52.496;13.456;2023-04-16T11:28:53;12.10;75.50
70079;DHT22;57451;52.496;13.456;2023-04-16T11:31:21;12.10;75.30
70079;DHT22;57451;52.496;13.456;2023-04-16T11:33:49;12.10;75.20
70079;DHT22;57451;52.496;13.456;2023-04-16T11:36:17;12.20;75.10
70079;DHT22;57451;52.496;13.456;2023-04-16T11:38:45;12.20;74.90
70079;DHT22;57451;52.496;13.456;2023-04-16T11:41:18;12.30;74.70
70079;DHT22;57451;52.496;13.456;2023-04-16T11:43:47;12.30;74.40
70079;DHT22;57451;52.496;13.456;2023-04-16T11:46:15;12.30;74.50
70079;DHT22;57451;52.496;13.456;2023-04-16T11:48:54;12.30;74.20
70079;DHT22;57451;52.496;13.456;2023-04-16T11:51:22;12.30;74.20
70079;DHT22;57451;52.496;13.456;2023-04-16T11:53:50;12.30;74.10
70079;DHT22;57451;52.496;13.456;2023-04-16T11:56:24;12.20;74.10
70079;DHT22;57451;52.496;13.456;2023-04-16T11:59:06;12.10;74.30
70079;DHT22;57451;52.496;13.456;2023-04-16T12:01:36;12.20;74.20
70079;DHT22;57451;52.496;13.456;2023-04-16T12:04:03;12.20;74.10
70079;DHT22;57451;52.496;13.456;2023-04-16T12:06:31;12.10;74.30
70079;DHT22;57451;52.496;13.456;2023-04-16T12:08:58;12.10;74.50
70079;DHT22;57451;52.496;13.456;2023-04-16T12:11:38;12.10;74.90
70079;DHT22;57451;52.496;13.456;2023-04-16T12:14:08;12.10;74.80
70079;DHT22;57451;52.496;13.456;2023-04-16T12:16:36;12.10;74.80
70079;DHT22;57451;52.496;13.456;2023-04-16T12:19:04;12.10;74.30
70079;DHT22;57451;52.496;13.456;2023-04-16T12:21:38;12.20;74.20
70079;DHT22;57451;52.496;13.456;2023-04-16T12:24:07;12.20;73.60
70079;DHT22;57451;52.496;13.456;2023-04-16T12:26:36;12.20;73.70
70079;DHT22;57451;52.496;13.456;2023-04-16T12:29:18;12.20;73.70
70079;DHT22;57451;52.496;13.456;2023-04-16T12:31:47;12.20;73.60
70079;DHT22;57451;52.496;13.456;2023-04-16T12:34:15;12.20;73.50
70079;DHT22;57451;52.496;13.456;2023-04-16T12:36:44;12.20;73.50
70079;DHT22;57451;52.496;13.456;2023-04-16T12:39:12;12.20;73.50
70079;DHT22;57451;52.496;13.456;2023-04-16T12:41:41;12.20;73.50
70079;DHT22;57451;52.496;13.456;2023-04-16T12:44:11;12.20;73.30
70079;DHT22;57451;52.496;13.456;2023-04-16T12:46:43;12.10;73.40
70079;DHT22;57451;52.496;13.456;2023-04-16T12:49:11;12.10;73.70
70079;DHT22;57451;52.496;13.456;2023-04-16T12:51:38;12.10;73.70
70079;DHT22;57451;52.496;13.456;2023-04-16T12:54:06;12.10;73.80
70079;DHT22;57451;52.496;13.456;2023-04-16T12:56:34;12.10;73.70
70079;DHT22;57451;52.496;13.456;2023-04-16T12:59:01;12.10;73.50
70079;DHT22;57451;52.496;13.456;2023-04-16T13:01:29;12.10;73.60
70079;DHT22;57451;52.496;13.456;2023-04-16T13:03:58;12.00;73.80
70079;DHT22;57451;52.496;13.456;2023-04-16T13:06:25;11.90;74.00
70079;DHT22;57451;52.496;13.456;2023-04-16T13:08:52;11.90;74.30
70079;DHT22;57451;52.496;13.456;2023-04-16T13:11:20;11.90;74.50
70079;DHT22;57451;52.496;13.456;2023-04-16T13:13:47;11.80;74.80
70079;DHT22;57451;52.496;13.456;2023-04-16T13:16:14;11.80;74.90
70079;DHT22;57451;52.496;13.456;2023-04-16T13:18:42;11.70;75.20
70079;DHT22;57451;52.496;13.456;2023-04-16T13:21:11;11.70;75.30
70079;DHT22;57451;52.496;13.456;2023-04-16T13:23:38;11.80;75.50
70079;DHT22;57451;52.496;13.456;2023-04-16T13:26:05;11.70;74.90
70079;DHT22;57451;52.496;13.456;2023-04-16T13:28:33;11.70;75.20
70079;DHT22;57451;52.496;13.456;2023-04-16T13:31:00;11.70;75.20
70079;DHT22;57451;52.496;13.456;2023-04-16T13:33:31;11.70;75.30
70079;DHT22;57451;52.496;13.456;2023-04-16T13:35:58;11.80;75.00
70079;DHT22;57451;52.496;13.456;2023-04-16T13:38:27;11.70;74.80
70079;DHT22;57451;52.496;13.456;2023-04-16T13:40:54;11.70;74.80
70079;DHT22;57451;52.496;13.456;2023-04-16T13:43:22;11.80;74.70
70079;DHT22;57451;52.496;13.456;2023-04-16T13:45:49;11.80;74.60
70079;DHT22;57451;52.496;13.456;2023-04-16T13:48:16;11.80;74.70
70079;DHT22;57451;52.496;13.456;2023-04-16T13:50:43;11.70;75.00
70079;DHT22;57451;52.496;13.456;2023-04-16T13:53:11;11.80;74.90
70079;DHT22;57451;52.496;13.456;2023-04-16T13:55:39;11.80;74.60
70079;DHT22;57451;52.496;13.456;2023-04-16T13:58:07;11.80;74.40
70079;DHT22;57451;52.496;13.456;2023-04-16T14:00:34;11.90;74.40
70079;DHT22;57451;52.496;13.456;2023-04-16T14:03:02;11.90;74.40
70079;DHT22;57451;52.496;13.456;2023-04-16T14:05:29;11.90;74.40
70079;DHT22;57451;52.496;13.456;2023-04-16T14:07:56;11.90;74.60
70079;DHT22;57451;52.496;13.456;2023-04-16T14:10:23;11.90;74.50
70079;DHT22;57451;52.496;13.456;2023-04-16T14:12:52;12.00;74.40
70079;DHT22;57451;52.496;13.456;2023-04-16T14:15:19;12.00;74.30
70079;DHT22;57451;52.496;13.456;2023-04-16T14:17:47;12.10;74.60
70079;DHT22;57451;52.496;13.456;2023-04-16T14:20:14;12.10;74.40
70079;DHT22;57451;52.496;13.456;2023-04-16T14:22:42;12.10;74.40
70079;DHT22;57451;52.496;13.456;2023-04-16T14:25:10;12.10;74.40
70079;DHT22;57451;52.496;13.456;2023-04-16T14:27:37;12.10;74.10
70079;DHT22;57451;52.496;13.456;2023-04-16T14:30:07;12.10;73.90
70079;DHT22;57451;52.496;13.456;2023-04-16T14:32:34;12.20;73.60
70079;DHT22;57451;52.496;13.456;2023-04-16T14:35:02;12.20;73.00
70079;DHT22;57451;52.496;13.456;2023-04-16T14:37:30;12.20;72.50
70079;DHT22;57451;52.496;13.456;2023-04-16T14:39:57;12.10;72.30
70079;DHT22;57451;52.496;13.456;2023-04-16T14:42:25;12.10;72.20
70079;DHT22;57451;52.496;13.456;2023-04-16T14:44:53;12.10;72.40
70079;DHT22;57451;52.496;13.456;2023-04-16T14:50:05;12.00;72.80
70079;DHT22;57451;52.496;13.456;2023-04-16T14:52:32;12.00;72.80
70079;DHT22;57451;52.496;13.456;2023-04-16T14:55:00;12.00;72.60
70079;DHT22;57451;52.496;13.456;2023-04-16T14:57:27;12.10;72.60
70079;DHT22;57451;52.496;13.456;2023-04-16T14:59:54;12.10;72.50
70079;DHT22;57451;52.496;13.456;2023-04-16T15:02:21;12.00;72.60
70079;DHT22;57451;52.496;13.456;2023-04-16T15:04:49;11.90;72.70
70079;DHT22;57451;52.496;13.456;2023-04-16T15:07:18;11.80;73.20
70079;DHT22;57451;52.496;13.456;2023-04-16T15:09:45;11.80;73.20
70079;DHT22;57451;52.496;13.456;2023-04-16T15:12:12;11.80;73.40
70079;DHT22;57451;52.496;13.456;2023-04-16T15:14:39;11.80;73.50
70079;DHT22;57451;52.496;13.456;2023-04-16T15:17:07;11.80;73.30
70079;DHT22;57451;52.496;13.456;2023-04-16T15:19:34;11.80;73.60
70079;DHT22;57451;52.496;13.456;2023-04-16T15:22:01;11.70;73.60
70079;DHT22;57451;52.496;13.456;2023-04-16T15:24:30;11.70;73.70